createdAt,value
2023-03-19T00:00:47.482Z,20.13
2023-03-19T00:03:16.628Z,19.00
2023-03-19T00:05:54.064Z,20.60
2023-03-19T00:08:22.999Z,18.67
2023-03-19T00:10:51.804Z,20.27
2023-03-19T00:13:21.038Z,19.10
2023-03-19T00:15:50.058Z,20.15
2023-03-19T00:18:18.973Z,18.65
2023-03-19T00:20:47.814Z,17.35
2023-03-19T00:23:18.118Z,22.55
2023-03-19T00:25:46.695Z,21.52
2023-03-19T00:28:15.564Z,21.92
2023-03-19T00:30:45.741Z,21.15
2023-03-19T00:33:14.984Z,20.90
2023-03-19T00:35:43.825Z,16.38
2023-03-19T00:38:12.689Z,19.55
2023-03-19T00:40:42.681Z,19.58
2023-03-19T00:45:41.890Z,20.42
2023-03-19T00:50:39.436Z,19.80
2023-03-19T00:53:08.372Z,20.98
2023-03-19T00:55:37.663Z,17.13
2023-03-19T00:58:08.354Z,20.50
2023-03-19T01:00:38.303Z,19.73
2023-03-19T01:03:07.806Z,20.87
2023-03-19T01:08:05.951Z,19.80
2023-03-19T01:10:35.719Z,21.60
2023-03-19T01:13:08.517Z,21.55
2023-03-19T01:15:38.030Z,22.38
2023-03-19T01:18:07.741Z,22.17
2023-03-19T01:20:37.325Z,20.38
2023-03-19T01:23:07.252Z,20.77
2023-03-19T01:25:36.420Z,19.70
2023-03-19T01:28:08.865Z,20.92
2023-03-19T01:30:41.195Z,19.98
2023-03-19T01:33:10.133Z,17.67
2023-03-19T01:35:44.568Z,19.55
2023-03-19T01:38:13.604Z,20.03
2023-03-19T01:40:46.107Z,22.73
2023-03-19T01:43:19.752Z,19.30
2023-03-19T01:45:54.380Z,18.50
2023-03-19T01:48:47.730Z,21.42
2023-03-19T01:51:22.084Z,19.40
2023-03-19T01:54:08.039Z,20.83
2023-03-19T01:56:52.587Z,18.73
2023-03-19T01:59:54.669Z,20.73
2023-03-19T02:02:52.452Z,19.92
2023-03-19T02:05:42.938Z,18.63
2023-03-19T02:08:16.298Z,18.80
2023-03-19T02:10:46.607Z,17.83
2023-03-19T02:15:46.406Z,20.08
2023-03-19T02:18:16.285Z,21.00
2023-03-19T02:20:52.046Z,19.58
2023-03-19T02:23:28.569Z,19.20
2023-03-19T02:26:07.992Z,20.00
2023-03-19T02:28:40.027Z,16.90
2023-03-19T02:31:10.184Z,19.10
2023-03-19T02:33:39.321Z,19.95
2023-03-19T02:36:12.857Z,18.75
2023-03-19T02:38:42.864Z,19.35
2023-03-19T02:41:13.371Z,18.88
2023-03-19T02:43:42.716Z,19.45
2023-03-19T02:46:13.804Z,15.98
2023-03-19T02:48:44.016Z,18.25
2023-03-19T02:51:13.616Z,19.27
2023-03-19T02:53:42.585Z,18.38
2023-03-19T02:56:13.066Z,16.35
2023-03-19T02:58:42.089Z,20.45
2023-03-19T03:03:40.883Z,17.65
2023-03-19T03:06:10.234Z,20.73
2023-03-19T03:08:39.326Z,19.33
2023-03-19T03:11:08.185Z,17.05
2023-03-19T03:13:38.194Z,19.85
2023-03-19T03:18:36.282Z,15.77
2023-03-19T03:21:05.280Z,18.85
2023-03-19T03:23:34.276Z,18.42
2023-03-19T03:26:04.136Z,15.77
2023-03-19T03:28:32.697Z,19.50
2023-03-19T03:31:03.875Z,21.27
2023-03-19T03:33:33.273Z,19.88
2023-03-19T03:36:02.310Z,20.50
2023-03-19T03:38:32.776Z,17.30
2023-03-19T03:43:30.291Z,16.98
2023-03-19T03:48:30.955Z,20.75
2023-03-19T03:50:59.934Z,20.33
2023-03-19T03:53:30.501Z,21.20
2023-03-19T03:55:59.526Z,19.67
2023-03-19T03:58:30.181Z,20.42
2023-03-19T04:00:59.132Z,17.90
2023-03-19T04:03:28.211Z,19.75
2023-03-19T04:05:58.695Z,21.05
2023-03-19T04:08:27.810Z,16.48
2023-03-19T04:10:56.432Z,18.92
2023-03-19T04:13:25.677Z,18.80
2023-03-19T04:15:56.252Z,18.98
2023-03-19T04:18:26.045Z,20.08
2023-03-19T04:20:55.077Z,20.50
2023-03-19T04:23:25.478Z,18.30
2023-03-19T04:25:54.049Z,16.20
2023-03-19T04:28:23.353Z,21.10
2023-03-19T04:30:52.439Z,18.50
2023-03-19T04:33:22.001Z,17.83
2023-03-19T04:35:51.144Z,16.23
2023-03-19T04:38:20.363Z,19.30
2023-03-19T04:40:50.691Z,19.25
2023-03-19T04:43:20.808Z,17.13
2023-03-19T04:45:49.912Z,19.73
2023-03-19T04:48:19.568Z,21.13
2023-03-19T04:50:52.277Z,19.25
2023-03-19T04:53:21.864Z,15.63
2023-03-19T04:55:52.197Z,19.60
2023-03-19T04:58:22.686Z,20.23
2023-03-19T05:01:00.817Z,16.92
2023-03-19T05:03:50.003Z,20.08
2023-03-19T05:06:20.105Z,15.70
2023-03-19T05:11:21.572Z,19.63
2023-03-19T05:14:01.490Z,19.30
2023-03-19T05:16:36.727Z,19.08
2023-03-19T05:19:05.673Z,19.63
2023-03-19T05:21:35.212Z,18.43
2023-03-19T05:24:04.671Z,20.83
2023-03-19T05:26:38.925Z,19.02
2023-03-19T05:29:22.213Z,16.83
2023-03-19T05:32:20.589Z,16.48
2023-03-19T05:34:49.765Z,19.00
2023-03-19T05:37:19.553Z,19.10
2023-03-19T05:39:54.935Z,17.65
2023-03-19T05:42:25.983Z,18.13
2023-03-19T05:44:57.929Z,14.20
2023-03-19T05:47:38.024Z,15.48
2023-03-19T05:50:07.685Z,18.83
2023-03-19T05:52:37.002Z,18.65
2023-03-19T05:55:07.301Z,18.33
2023-03-19T05:57:49.744Z,20.75
2023-03-19T06:00:22.707Z,19.52
2023-03-19T06:02:53.321Z,18.55
2023-03-19T06:05:52.012Z,20.23
2023-03-19T06:08:38.410Z,19.98
2023-03-19T06:11:24.199Z,20.10
2023-03-19T06:14:09.158Z,16.45
2023-03-19T06:16:42.011Z,19.48
2023-03-19T06:19:11.408Z,22.50
2023-03-19T06:21:40.924Z,20.52
2023-03-19T06:24:10.275Z,21.35
2023-03-19T06:26:40.494Z,19.05
2023-03-19T06:29:17.718Z,19.33
2023-03-19T06:31:50.161Z,21.05
2023-03-19T06:34:36.915Z,19.20
2023-03-19T06:37:05.903Z,18.20
2023-03-19T06:39:35.081Z,18.00
2023-03-19T06:42:04.125Z,20.08
2023-03-19T06:44:34.501Z,21.30
2023-03-19T06:49:32.607Z,21.10
2023-03-19T06:52:01.515Z,20.85
2023-03-19T06:54:30.700Z,22.60
2023-03-19T06:57:00.559Z,20.25
2023-03-19T06:59:29.394Z,18.27
2023-03-19T07:01:59.759Z,20.88
2023-03-19T07:04:28.344Z,19.50
2023-03-19T07:06:57.370Z,20.92
2023-03-19T07:09:27.440Z,19.00
2023-03-19T07:11:56.572Z,19.60
2023-03-19T07:14:25.900Z,16.63
2023-03-19T07:16:54.490Z,22.95
2023-03-19T07:19:24.776Z,18.65
2023-03-19T07:24:22.516Z,17.85
2023-03-19T07:26:51.767Z,21.17
2023-03-19T07:29:20.885Z,19.98
2023-03-19T07:31:50.003Z,18.63
2023-03-19T07:34:18.994Z,20.55
2023-03-19T07:36:49.316Z,18.83
2023-03-19T07:41:48.694Z,16.15
2023-03-19T07:44:18.414Z,18.98
2023-03-19T07:46:47.269Z,20.13
2023-03-19T07:49:16.383Z,20.13
2023-03-19T07:51:45.359Z,19.08
2023-03-19T07:54:15.709Z,18.73
2023-03-19T07:56:44.725Z,18.67
2023-03-19T07:59:13.668Z,17.40
2023-03-19T08:01:42.114Z,18.70
2023-03-19T08:04:11.147Z,17.30
2023-03-19T08:06:40.195Z,15.40
2023-03-19T08:09:09.480Z,15.75
2023-03-19T08:11:39.785Z,14.63
2023-03-19T08:14:08.742Z,16.15
2023-03-19T08:16:37.284Z,15.73
2023-03-19T08:19:06.164Z,16.42
2023-03-19T08:21:35.026Z,15.98
2023-03-19T08:24:05.108Z,14.10
2023-03-19T08:26:34.186Z,15.43
2023-03-19T08:29:04.880Z,14.40
2023-03-19T08:31:33.483Z,13.98
2023-03-19T08:34:06.362Z,13.90
2023-03-19T08:36:35.464Z,12.00
2023-03-19T08:39:04.649Z,12.60
2023-03-19T08:41:33.556Z,11.98
2023-03-19T08:44:02.711Z,11.48
2023-03-19T08:46:33.676Z,13.50
2023-03-19T08:49:02.721Z,12.02
2023-03-19T08:51:32.074Z,13.52
2023-03-19T08:54:01.015Z,12.93
2023-03-19T08:56:30.161Z,12.23
2023-03-19T08:58:59.272Z,12.90
2023-03-19T09:01:28.008Z,13.10
2023-03-19T09:04:00.746Z,13.00
2023-03-19T09:06:29.975Z,13.63
2023-03-19T09:08:59.036Z,12.50
2023-03-19T09:11:28.547Z,12.60
2023-03-19T09:13:57.219Z,11.48
2023-03-19T09:16:27.054Z,12.10
2023-03-19T09:18:59.215Z,11.55
2023-03-19T09:21:31.730Z,12.48
2023-03-19T09:24:00.910Z,11.45
2023-03-19T09:26:30.036Z,11.70
2023-03-19T09:28:59.216Z,11.93
2023-03-19T09:31:29.648Z,11.60
2023-03-19T09:33:59.028Z,11.23
2023-03-19T09:36:28.023Z,12.15
2023-03-19T09:38:58.493Z,11.77
2023-03-19T09:41:33.261Z,12.15
2023-03-19T09:44:03.745Z,11.02
2023-03-19T09:46:40.373Z,12.32
2023-03-19T09:49:16.401Z,12.00
2023-03-19T09:51:48.724Z,12.50
2023-03-19T09:54:27.500Z,11.98
2023-03-19T09:56:56.471Z,11.85
2023-03-19T09:59:27.160Z,11.40
2023-03-19T10:02:01.346Z,12.40
2023-03-19T10:04:42.645Z,11.55
2023-03-19T10:07:23.931Z,11.10
2023-03-19T10:10:05.591Z,10.90
2023-03-19T10:12:45.625Z,11.38
2023-03-19T10:15:23.851Z,9.90
2023-03-19T10:17:59.358Z,11.18
2023-03-19T10:20:48.932Z,10.43
2023-03-19T10:23:33.841Z,11.32
2023-03-19T10:26:07.453Z,10.23
2023-03-19T10:28:37.985Z,9.88
2023-03-19T10:31:20.385Z,11.75
2023-03-19T10:33:54.746Z,11.35
2023-03-19T10:36:29.276Z,10.27
2023-03-19T10:38:58.470Z,10.10
2023-03-19T10:41:39.879Z,9.77
2023-03-19T10:44:13.704Z,8.95
2023-03-19T10:46:43.052Z,9.63
2023-03-19T10:49:15.470Z,9.73
2023-03-19T10:51:45.804Z,9.90
2023-03-19T10:54:22.725Z,10.05
2023-03-19T10:56:56.474Z,9.60
2023-03-19T10:59:30.147Z,8.55
2023-03-19T11:02:00.105Z,9.38
2023-03-19T11:04:30.043Z,8.77
2023-03-19T11:09:35.971Z,8.80
2023-03-19T11:12:18.825Z,9.68
2023-03-19T11:14:49.039Z,9.27
2023-03-19T11:17:22.895Z,9.65
2023-03-19T11:19:53.689Z,10.35
2023-03-19T11:22:24.786Z,8.95
2023-03-19T11:24:55.853Z,8.55
2023-03-19T11:27:35.068Z,8.60
2023-03-19T11:30:05.375Z,9.20
2023-03-19T11:32:50.938Z,9.88
2023-03-19T11:35:22.626Z,8.95
2023-03-19T11:37:56.331Z,10.00
2023-03-19T11:40:43.290Z,7.70
2023-03-19T11:43:36.926Z,9.50
2023-03-19T11:46:12.976Z,8.88
2023-03-19T11:48:54.217Z,8.25
2023-03-19T11:51:28.073Z,8.68
2023-03-19T11:54:02.541Z,8.68
2023-03-19T11:56:36.382Z,8.32
2023-03-19T11:59:23.981Z,8.55
2023-03-19T12:02:23.083Z,8.75
2023-03-19T12:05:05.104Z,9.52
2023-03-19T12:07:37.582Z,9.77
2023-03-19T12:10:27.911Z,8.90
2023-03-19T12:15:31.710Z,9.15
2023-03-19T12:18:06.828Z,9.65
2023-03-19T12:20:48.106Z,9.15
2023-03-19T12:23:35.741Z,8.70
2023-03-19T12:26:06.837Z,9.80
2023-03-19T12:28:39.408Z,8.88
2023-03-19T12:31:36.867Z,8.95
2023-03-19T12:34:17.983Z,9.35
2023-03-19T12:36:52.099Z,8.85
2023-03-19T12:39:25.350Z,8.68
2023-03-19T12:41:56.416Z,9.13
2023-03-19T12:44:29.163Z,9.43
2023-03-19T12:47:04.512Z,10.45
2023-03-19T12:49:37.692Z,9.15
2023-03-19T12:52:14.057Z,8.55
2023-03-19T12:54:45.917Z,10.05
2023-03-19T12:57:20.104Z,9.48
2023-03-19T12:59:54.647Z,9.43
2023-03-19T13:02:30.502Z,7.53
2023-03-19T13:05:04.100Z,8.85
2023-03-19T13:07:37.715Z,9.57
2023-03-19T13:10:11.847Z,8.10
2023-03-19T13:12:41.332Z,8.45
2023-03-19T13:15:13.374Z,9.43
2023-03-19T13:17:50.943Z,8.90
2023-03-19T13:20:23.828Z,9.27
2023-03-19T13:22:56.811Z,8.70
2023-03-19T13:25:28.739Z,8.07
2023-03-19T13:27:57.920Z,8.60
2023-03-19T13:30:27.697Z,9.38
2023-03-19T13:33:05.777Z,8.25
2023-03-19T13:35:40.872Z,8.77
2023-03-19T13:38:19.115Z,7.97
2023-03-19T13:40:50.348Z,8.80
2023-03-19T13:43:44.317Z,7.63
2023-03-19T13:46:39.249Z,9.13
2023-03-19T13:49:26.790Z,7.90
2023-03-19T13:51:57.555Z,9.50
2023-03-19T13:54:40.322Z,8.70
2023-03-19T13:57:36.282Z,7.68
2023-03-19T14:00:43.008Z,7.55
2023-03-19T14:03:21.976Z,6.65
2023-03-19T14:05:54.134Z,9.88
2023-03-19T14:08:26.079Z,9.25
2023-03-19T14:10:57.091Z,8.05
2023-03-19T14:13:32.133Z,9.02
2023-03-19T14:16:09.896Z,9.48
2023-03-19T14:18:42.534Z,8.60
2023-03-19T14:21:21.815Z,8.02
2023-03-19T14:23:57.742Z,9.07
2023-03-19T14:26:30.201Z,9.15
2023-03-19T14:29:01.205Z,8.85
2023-03-19T14:31:34.891Z,8.20
2023-03-19T14:34:08.579Z,7.78
2023-03-19T14:36:43.544Z,7.45
2023-03-19T14:39:21.940Z,8.63
2023-03-19T14:41:53.326Z,7.25
2023-03-19T14:44:58.214Z,9.63
2023-03-19T14:47:42.474Z,9.13
2023-03-19T14:50:41.720Z,9.57
2023-03-19T14:53:17.217Z,9.52
2023-03-19T14:55:51.512Z,8.23
2023-03-19T14:58:21.479Z,8.88
2023-03-19T15:00:51.769Z,9.38
2023-03-19T15:03:25.925Z,8.88
2023-03-19T15:05:58.969Z,9.43
2023-03-19T15:08:32.330Z,8.93
2023-03-19T15:11:13.287Z,7.88
2023-03-19T15:13:52.345Z,9.20
2023-03-19T15:16:34.468Z,10.65
2023-03-19T15:19:03.714Z,8.63
2023-03-19T15:21:32.591Z,9.23
2023-03-19T15:24:04.792Z,9.05
2023-03-19T15:26:35.199Z,8.85
2023-03-19T15:29:04.645Z,8.60
2023-03-19T15:31:52.868Z,8.80
2023-03-19T15:34:31.770Z,9.27
2023-03-19T15:37:02.955Z,9.57
2023-03-19T15:39:37.642Z,8.68
2023-03-19T15:42:07.298Z,8.68
2023-03-19T15:44:38.499Z,10.27
2023-03-19T15:47:09.877Z,9.27
2023-03-19T15:49:40.428Z,8.93
2023-03-19T15:52:12.519Z,8.88
2023-03-19T15:54:43.386Z,9.73
2023-03-19T15:57:14.389Z,9.70
2023-03-19T15:59:43.518Z,9.25
2023-03-19T16:02:18.184Z,9.30
2023-03-19T16:05:13.966Z,9.20
2023-03-19T16:07:43.003Z,9.25
2023-03-19T16:10:33.697Z,10.63
2023-03-19T16:13:05.771Z,9.73
2023-03-19T16:15:38.870Z,9.32
2023-03-19T16:18:27.355Z,9.20
2023-03-19T16:21:15.278Z,9.52
2023-03-19T16:23:45.746Z,9.65
2023-03-19T16:28:59.802Z,9.93
2023-03-19T16:31:32.239Z,10.07
2023-03-19T16:34:01.599Z,10.27
2023-03-19T16:36:33.061Z,9.82
2023-03-19T16:39:21.714Z,9.70
2023-03-19T16:42:15.906Z,8.93
2023-03-19T16:44:45.719Z,10.15
2023-03-19T16:47:16.161Z,10.30
2023-03-19T16:49:47.763Z,9.82
2023-03-19T16:52:18.970Z,9.57
2023-03-19T16:54:48.052Z,10.07
2023-03-19T16:57:18.965Z,12.52
2023-03-19T16:59:48.451Z,10.27
2023-03-19T17:02:18.651Z,11.02
2023-03-19T17:04:47.668Z,10.45
2023-03-19T17:07:16.630Z,10.55
2023-03-19T17:09:45.510Z,13.20
2023-03-19T17:12:17.618Z,13.18
2023-03-19T17:14:47.290Z,12.77
2023-03-19T17:17:19.601Z,13.15
2023-03-19T17:19:48.899Z,14.02
2023-03-19T17:22:18.204Z,12.27
2023-03-19T17:24:47.358Z,12.88
2023-03-19T17:27:17.681Z,13.43
2023-03-19T17:32:18.859Z,11.82
2023-03-19T17:34:47.430Z,12.30
2023-03-19T17:37:16.384Z,12.25
2023-03-19T17:39:46.057Z,13.25
2023-03-19T17:42:22.679Z,13.40
2023-03-19T17:44:52.277Z,19.15
2023-03-19T17:47:21.440Z,18.23
2023-03-19T17:49:50.120Z,20.52
2023-03-19T17:52:20.170Z,23.50
2023-03-19T17:54:49.127Z,19.92
2023-03-19T17:57:19.495Z,18.27
2023-03-19T18:02:25.693Z,17.77
2023-03-19T18:04:54.777Z,17.70
2023-03-19T18:07:23.694Z,18.55
2023-03-19T18:09:52.865Z,16.90
2023-03-19T18:12:23.203Z,18.83
2023-03-19T18:17:21.937Z,19.23
2023-03-19T18:19:52.379Z,18.98
2023-03-19T18:22:21.775Z,20.13
2023-03-19T18:24:50.894Z,20.13
2023-03-19T18:27:19.829Z,21.58
2023-03-19T18:29:52.598Z,23.30
2023-03-19T18:32:26.872Z,20.40
2023-03-19T18:34:55.466Z,21.38
2023-03-19T18:37:24.617Z,22.35
2023-03-19T18:39:53.745Z,21.70
2023-03-19T18:42:23.643Z,20.75
2023-03-19T18:44:54.123Z,20.67
2023-03-19T18:49:54.093Z,19.55
2023-03-19T18:52:23.084Z,20.45
2023-03-19T18:54:52.282Z,20.52
2023-03-19T18:57:21.353Z,21.25
2023-03-19T18:59:50.336Z,22.73
2023-03-19T19:02:32.542Z,23.77
2023-03-19T19:05:01.527Z,25.75
2023-03-19T19:07:30.438Z,24.08
2023-03-19T19:09:59.362Z,23.95
2023-03-19T19:12:28.457Z,24.58
2023-03-19T19:14:58.809Z,27.10
2023-03-19T19:19:58.986Z,30.13
2023-03-19T19:22:29.841Z,30.77
2023-03-19T19:24:58.916Z,34.90
2023-03-19T19:27:28.011Z,33.22
2023-03-19T19:29:57.227Z,37.42
2023-03-19T19:32:29.737Z,38.22
2023-03-19T19:34:58.360Z,37.90
2023-03-19T19:37:27.334Z,36.65
2023-03-19T19:39:56.607Z,36.95
2023-03-19T19:42:26.133Z,36.00
2023-03-19T19:44:58.872Z,33.73
2023-03-19T19:47:29.576Z,32.70
2023-03-19T19:49:58.225Z,34.40
2023-03-19T19:52:27.241Z,32.40
2023-03-19T19:54:56.247Z,31.95
2023-03-19T19:57:25.554Z,31.42
2023-03-19T19:59:55.538Z,33.70
2023-03-19T20:02:25.988Z,29.75
2023-03-19T20:04:56.092Z,34.42
2023-03-19T20:07:25.134Z,37.22
2023-03-19T20:09:54.157Z,36.67
2023-03-19T20:12:24.606Z,37.38
2023-03-19T20:14:54.218Z,38.95
2023-03-19T20:17:23.936Z,40.38
2023-03-19T20:19:52.830Z,43.13
2023-03-19T20:22:23.283Z,39.33
2023-03-19T20:24:52.386Z,40.70
2023-03-19T20:27:23.567Z,42.92
2023-03-19T20:29:54.279Z,44.05
2023-03-19T20:32:27.596Z,45.10
2023-03-19T20:34:56.315Z,41.80
2023-03-19T20:37:26.704Z,38.28
2023-03-19T20:39:55.989Z,44.75
2023-03-19T20:42:27.125Z,41.63
2023-03-19T20:44:58.621Z,45.75
2023-03-19T20:47:27.855Z,39.08
2023-03-19T20:49:56.436Z,43.78
2023-03-19T20:52:26.791Z,44.47
2023-03-19T20:54:55.727Z,41.50
2023-03-19T20:57:29.406Z,40.38
2023-03-19T20:59:59.345Z,39.88
2023-03-19T21:02:28.617Z,40.30
2023-03-19T21:04:57.592Z,37.95
2023-03-19T21:07:30.873Z,38.88
2023-03-19T21:10:00.029Z,35.80
2023-03-19T21:12:30.969Z,39.95
2023-03-19T21:15:01.104Z,39.50
2023-03-19T21:17:30.554Z,42.72
2023-03-19T21:19:59.432Z,39.92
2023-03-19T21:22:30.832Z,38.33
2023-03-19T21:25:08.598Z,43.47
2023-03-19T21:27:38.523Z,39.78
2023-03-19T21:30:08.772Z,39.60
2023-03-19T21:35:07.694Z,41.38
2023-03-19T21:37:39.542Z,42.58
2023-03-19T21:40:15.194Z,43.15
2023-03-19T21:42:44.329Z,42.33
2023-03-19T21:45:18.844Z,39.70
2023-03-19T21:47:47.906Z,41.47
2023-03-19T21:50:18.475Z,43.33
2023-03-19T21:52:58.800Z,39.22
2023-03-19T21:55:29.867Z,39.45
2023-03-19T21:57:59.277Z,38.30
2023-03-19T22:00:28.192Z,35.22
2023-03-19T22:02:57.179Z,37.85
2023-03-19T22:05:27.745Z,36.67
2023-03-19T22:07:58.007Z,36.35
2023-03-19T22:10:29.734Z,36.63
2023-03-19T22:12:58.700Z,35.33
2023-03-19T22:15:34.879Z,36.10
2023-03-19T22:18:05.153Z,36.20
2023-03-19T22:20:34.400Z,37.65
2023-03-19T22:23:05.354Z,37.45
2023-03-19T22:25:35.659Z,37.15
2023-03-19T22:28:06.183Z,34.60
2023-03-19T22:33:07.233Z,36.30
2023-03-19T22:35:36.692Z,36.55
2023-03-19T22:38:07.233Z,35.30
2023-03-19T22:40:36.300Z,35.78
2023-03-19T22:43:08.503Z,35.50
2023-03-19T22:45:37.789Z,35.53
2023-03-19T22:48:07.217Z,36.63
2023-03-19T22:50:36.160Z,36.03
2023-03-19T22:53:20.346Z,37.72
2023-03-19T22:55:48.948Z,37.38
2023-03-19T22:58:18.008Z,38.85
2023-03-19T23:00:47.023Z,36.58
2023-03-19T23:03:21.470Z,38.83
2023-03-19T23:05:53.476Z,37.85
2023-03-19T23:08:24.096Z,39.47
2023-03-19T23:10:53.509Z,39.45
2023-03-19T23:13:23.373Z,34.08
2023-03-19T23:15:56.763Z,38.53
2023-03-19T23:18:30.477Z,41.00
2023-03-19T23:20:59.424Z,40.53
2023-03-19T23:23:30.526Z,40.38
2023-03-19T23:25:59.273Z,36.45
2023-03-19T23:28:31.852Z,37.85
2023-03-19T23:31:02.981Z,37.58
2023-03-19T23:33:31.981Z,37.42
2023-03-19T23:36:00.839Z,36.92
2023-03-19T23:38:31.680Z,31.98
2023-03-19T23:41:01.125Z,37.05
2023-03-19T23:43:30.994Z,36.83
2023-03-19T23:46:00.442Z,37.20
2023-03-19T23:48:34.086Z,36.10
2023-03-19T23:51:03.928Z,36.92
2023-03-19T23:53:34.381Z,36.25
2023-03-19T23:58:39.978Z,35.67
